createdAt,value
2024-01-21T00:00:37.964Z,99116.34
2024-01-21T00:05:51.866Z,99127.03
2024-01-21T00:10:55.260Z,99132.16
2024-01-21T00:15:58.977Z,99140.03
2024-01-21T00:21:02.100Z,99144.38
2024-01-21T00:26:05.738Z,99145.81
2024-01-21T00:31:08.889Z,99159.09
2024-01-21T00:36:21.213Z,99137.47
2024-01-21T00:41:24.239Z,99154.16
2024-01-21T00:46:27.149Z,99188.22
2024-01-21T00:51:30.390Z,99152.47
2024-01-21T00:56:33.797Z,99167.81
2024-01-21T01:01:39.848Z,99168.28
2024-01-21T01:06:43.770Z,99190.56
2024-01-21T01:11:46.911Z,99173.09
2024-01-21T01:16:49.946Z,99185.75
2024-01-21T01:21:53.451Z,99193.34
2024-01-21T01:26:56.575Z,99193.63
2024-01-21T01:31:59.631Z,99198.00
2024-01-21T01:37:02.642Z,99218.72
2024-01-21T01:42:05.926Z,99230.94
2024-01-21T01:47:10.159Z,99235.09
2024-01-21T01:52:16.958Z,99254.16
2024-01-21T01:57:22.037Z,99260.19
2024-01-21T02:02:25.430Z,99266.03
2024-01-21T02:07:28.640Z,99278.84
2024-01-21T02:12:44.691Z,99311.28
2024-01-21T02:17:50.374Z,99319.63
2024-01-21T02:22:58.187Z,99303.09
2024-01-21T02:28:01.313Z,99311.88
2024-01-21T02:33:04.546Z,99322.81
2024-01-21T02:38:07.677Z,99331.31
2024-01-21T02:43:29.222Z,99361.50
2024-01-21T02:48:32.255Z,99355.56
2024-01-21T02:53:35.290Z,99370.47
2024-01-21T02:58:38.719Z,99387.34
2024-01-21T03:03:41.655Z,99425.56
2024-01-21T03:08:44.857Z,99434.25
2024-01-21T03:13:47.935Z,99436.38
2024-01-21T03:18:50.960Z,99436.06
2024-01-21T03:23:54.061Z,99450.91
2024-01-21T03:28:58.453Z,99474.22
2024-01-21T03:34:01.768Z,99465.78
2024-01-21T03:39:05.154Z,99529.06
2024-01-21T03:44:08.233Z,99522.84
2024-01-21T03:49:11.347Z,99505.19
2024-01-21T03:54:14.489Z,99507.03
2024-01-21T03:59:18.505Z,99530.63
2024-01-21T04:04:21.458Z,99566.53
2024-01-21T04:09:25.552Z,99567.19
2024-01-21T04:14:28.585Z,99584.44
2024-01-21T04:19:32.034Z,99576.44
2024-01-21T04:24:53.576Z,99642.50
2024-01-21T04:29:56.503Z,99620.47
2024-01-21T04:34:59.695Z,99634.75
2024-01-21T04:40:02.680Z,99629.72
2024-01-21T04:45:08.335Z,99619.06
2024-01-21T04:50:13.788Z,99630.78
2024-01-21T04:55:16.829Z,99642.47
2024-01-21T05:00:21.878Z,99673.84
2024-01-21T05:05:25.117Z,99704.25
2024-01-21T05:10:28.204Z,99652.38
2024-01-21T05:15:31.179Z,99677.63
2024-01-21T05:20:34.288Z,99693.81
2024-01-21T05:25:37.390Z,99705.88
2024-01-21T05:30:40.437Z,99734.50
2024-01-21T05:35:43.560Z,99728.13
2024-01-21T05:40:46.755Z,99750.72
2024-01-21T05:45:49.913Z,99747.97
2024-01-21T05:50:53.002Z,99774.53
2024-01-21T05:55:56.092Z,99763.41
2024-01-21T06:01:00.317Z,99782.06
2024-01-21T06:06:03.465Z,99776.25
2024-01-21T06:11:06.716Z,99822.75
2024-01-21T06:16:09.834Z,99815.47
2024-01-21T06:21:12.937Z,99803.34
2024-01-21T06:26:21.311Z,99816.19
2024-01-21T06:31:24.326Z,99820.13
2024-01-21T06:36:27.301Z,99834.53
2024-01-21T06:41:30.444Z,99843.34
2024-01-21T06:46:33.623Z,99848.97
2024-01-21T06:51:44.827Z,99851.25
2024-01-21T06:56:48.099Z,99874.00
2024-01-21T07:01:52.315Z,99881.44
2024-01-21T07:06:55.561Z,99890.53
2024-01-21T07:11:58.672Z,99899.88
2024-01-21T07:17:05.582Z,99930.03
2024-01-21T07:22:08.763Z,99931.28
2024-01-21T07:27:11.668Z,99976.97
2024-01-21T07:32:14.810Z,99959.81
2024-01-21T07:37:17.897Z,99968.53
2024-01-21T07:42:20.787Z,99969.53
2024-01-21T07:47:23.783Z,99969.38
2024-01-21T07:52:26.816Z,99982.94
2024-01-21T07:57:29.957Z,99987.13
2024-01-21T08:02:33.409Z,100024.81
2024-01-21T08:07:36.528Z,100015.16
2024-01-21T08:12:39.898Z,100024.00
2024-01-21T08:17:42.960Z,100035.94
2024-01-21T08:22:46.093Z,100046.00
2024-01-21T08:27:49.261Z,100023.94
2024-01-21T08:32:52.176Z,100024.03
2024-01-21T08:37:55.308Z,100036.50
2024-01-21T08:42:58.744Z,100042.50
2024-01-21T08:48:01.830Z,100072.50
2024-01-21T08:53:05.306Z,100084.91
2024-01-21T08:58:08.454Z,100104.13
2024-01-21T09:03:13.659Z,100082.06
2024-01-21T09:08:16.860Z,100091.38
2024-01-21T09:13:20.843Z,100129.28
2024-01-21T09:18:24.118Z,100142.75
2024-01-21T09:23:27.654Z,100131.44
2024-01-21T09:28:30.706Z,100135.69
2024-01-21T09:33:33.933Z,100144.47
2024-01-21T09:38:37.007Z,100148.88
2024-01-21T09:43:45.782Z,100150.97
2024-01-21T09:48:52.516Z,100149.84
2024-01-21T09:53:55.711Z,100171.78
2024-01-21T09:59:00.444Z,100162.28
2024-01-21T10:04:04.687Z,100178.09
2024-01-21T10:09:19.576Z,100168.63
2024-01-21T10:14:22.749Z,100165.75
2024-01-21T10:19:35.895Z,100182.34
2024-01-21T10:24:40.782Z,100180.03
2024-01-21T10:29:45.764Z,100225.63
2024-01-21T10:34:53.587Z,100202.56
2024-01-21T10:39:57.714Z,100194.28
2024-01-21T10:45:03.136Z,100262.81
2024-01-21T10:50:09.671Z,100216.66
2024-01-21T10:55:12.847Z,100257.81
2024-01-21T11:00:19.230Z,100246.44
2024-01-21T11:05:25.872Z,100245.91
2024-01-21T11:10:30.193Z,100290.09
2024-01-21T11:15:33.464Z,100335.25
2024-01-21T11:20:36.585Z,100289.13
2024-01-21T11:25:39.721Z,100317.19
2024-01-21T11:30:42.794Z,100302.53
2024-01-21T11:35:45.759Z,100342.91
2024-01-21T11:41:06.658Z,100313.59
2024-01-21T11:46:10.847Z,100325.16
2024-01-21T11:51:13.965Z,100360.25
2024-01-21T11:56:17.175Z,100333.28
2024-01-21T12:01:21.970Z,100336.47
2024-01-21T12:06:26.211Z,100361.34
2024-01-21T12:11:39.200Z,100369.47
2024-01-21T12:16:45.721Z,100373.66
2024-01-21T12:21:49.585Z,100384.91
2024-01-21T12:26:56.566Z,100383.59
2024-01-21T12:32:18.515Z,100378.34
2024-01-21T12:37:21.826Z,100403.72
2024-01-21T12:42:24.878Z,100451.53
2024-01-21T12:47:27.855Z,100447.13
2024-01-21T12:52:30.976Z,100438.50
2024-01-21T12:57:34.548Z,100432.25
2024-01-21T13:02:40.073Z,100446.00
2024-01-21T13:07:43.808Z,100460.56
2024-01-21T13:12:47.142Z,100480.34
2024-01-21T13:17:52.409Z,100489.34
2024-01-21T13:22:55.510Z,100513.38
2024-01-21T13:28:16.848Z,100507.53
2024-01-21T13:33:29.835Z,100508.69
2024-01-21T13:38:35.309Z,100535.47
2024-01-21T13:43:38.534Z,100538.41
2024-01-21T13:48:41.817Z,100535.47
2024-01-21T13:53:48.085Z,100557.06
2024-01-21T13:58:51.022Z,100556.81
2024-01-21T14:03:54.151Z,100575.03
2024-01-21T14:08:57.475Z,100591.94
2024-01-21T14:14:00.779Z,100607.00
2024-01-21T14:19:04.473Z,100593.16
2024-01-21T14:24:07.556Z,100600.41
2024-01-21T14:29:36.057Z,100628.47
2024-01-21T14:34:39.098Z,100630.47
2024-01-21T14:39:42.211Z,100636.84
2024-01-21T14:44:45.263Z,100650.59
2024-01-21T14:49:48.435Z,100639.94
2024-01-21T14:54:51.509Z,100643.19
2024-01-21T14:59:54.780Z,100668.94
2024-01-21T15:04:57.974Z,100687.66
2024-01-21T15:10:01.583Z,100663.88
2024-01-21T15:15:29.729Z,100672.13
2024-01-21T15:20:33.106Z,100684.59
2024-01-21T15:25:36.263Z,100683.94
2024-01-21T15:30:44.442Z,100694.06
2024-01-21T15:35:47.622Z,100701.00
2024-01-21T15:40:50.781Z,100713.56
2024-01-21T15:45:53.989Z,100722.66
2024-01-21T15:50:58.799Z,100728.97
2024-01-21T15:56:01.818Z,100750.09
2024-01-21T16:01:05.184Z,100755.72
2024-01-21T16:06:08.296Z,100762.31
2024-01-21T16:11:32.357Z,100771.91
2024-01-21T16:16:35.515Z,100775.13
2024-01-21T16:21:38.726Z,100794.28
2024-01-21T16:26:42.449Z,100791.81
2024-01-21T16:31:46.090Z,100802.00
2024-01-21T16:36:49.196Z,100795.91
2024-01-21T16:41:52.248Z,100824.47
2024-01-21T16:46:55.365Z,100830.34
2024-01-21T16:52:08.338Z,100831.53
2024-01-21T16:57:11.611Z,100831.53
2024-01-21T17:02:19.400Z,100853.00
2024-01-21T17:07:22.738Z,100850.06
2024-01-21T17:12:34.318Z,100863.44
2024-01-21T17:17:41.870Z,100894.84
2024-01-21T17:22:45.057Z,100899.94
2024-01-21T17:27:48.170Z,100890.34
2024-01-21T17:32:51.280Z,100890.09
2024-01-21T17:37:54.350Z,100912.84
2024-01-21T17:42:57.181Z,100917.81
2024-01-21T17:48:00.351Z,100935.19
2024-01-21T17:53:03.652Z,100927.94
2024-01-21T17:58:06.671Z,100933.56
2024-01-21T18:03:09.975Z,100946.00
2024-01-21T18:08:13.393Z,100975.28
2024-01-21T18:13:16.952Z,100967.78
2024-01-21T18:18:24.994Z,100965.97
2024-01-21T18:23:30.001Z,100968.88
2024-01-21T18:28:33.023Z,100982.22
2024-01-21T18:33:38.250Z,100999.91
2024-01-21T18:38:42.101Z,100992.56
2024-01-21T18:43:45.013Z,101000.88
2024-01-21T18:48:48.356Z,100999.78
2024-01-21T18:53:51.479Z,101002.31
2024-01-21T18:58:55.785Z,101016.47
2024-01-21T19:03:59.075Z,101026.16
2024-01-21T19:09:02.370Z,101022.97
2024-01-21T19:14:05.759Z,101027.81
2024-01-21T19:19:13.472Z,101032.22
2024-01-21T19:24:16.908Z,101029.06
2024-01-21T19:29:20.006Z,101033.47
2024-01-21T19:34:23.377Z,101044.25
2024-01-21T19:39:26.380Z,101049.97
2024-01-21T19:44:30.595Z,101059.19
2024-01-21T19:49:33.787Z,101067.03
2024-01-21T19:54:37.679Z,101084.53
2024-01-21T19:59:41.368Z,101089.72
2024-01-21T20:04:44.504Z,101085.44
2024-01-21T20:09:47.419Z,101096.97
2024-01-21T20:14:50.758Z,101103.13
2024-01-21T20:19:53.814Z,101110.69
2024-01-21T20:24:57.146Z,101119.41
2024-01-21T20:30:06.053Z,101134.69
2024-01-21T20:35:10.498Z,101136.88
2024-01-21T20:40:13.632Z,101133.09
2024-01-21T20:45:16.828Z,101142.19
2024-01-21T20:50:19.965Z,101151.56
2024-01-21T20:55:34.125Z,101158.03
2024-01-21T21:00:37.222Z,101160.22
2024-01-21T21:05:40.498Z,101158.66
2024-01-21T21:10:43.487Z,101166.16
2024-01-21T21:15:46.644Z,101177.97
2024-01-21T21:20:49.754Z,101180.56
2024-01-21T21:25:52.910Z,101180.63
2024-01-21T21:30:55.944Z,101178.94
2024-01-21T21:35:59.604Z,101183.66
2024-01-21T21:41:21.159Z,101178.94
2024-01-21T21:46:24.332Z,101176.78
2024-01-21T21:51:27.942Z,101184.41
2024-01-21T21:56:31.083Z,101195.44
2024-01-21T22:01:34.079Z,101187.63
2024-01-21T22:06:37.680Z,101191.66
2024-01-21T22:11:40.917Z,101189.22
2024-01-21T22:16:44.010Z,101196.84
2024-01-21T22:21:48.424Z,101206.09
2024-01-21T22:26:52.601Z,101199.03
2024-01-21T22:31:56.209Z,101208.56
2024-01-21T22:36:59.145Z,101195.03
2024-01-21T22:42:02.275Z,101214.09
2024-01-21T22:47:06.027Z,101221.66
2024-01-21T22:52:09.191Z,101232.50
2024-01-21T22:57:12.193Z,101232.66
2024-01-21T23:02:15.505Z,101242.88
2024-01-21T23:07:18.944Z,101246.09
2024-01-21T23:12:21.857Z,101263.72
2024-01-21T23:17:25.177Z,101270.09
2024-01-21T23:22:28.319Z,101277.03
2024-01-21T23:27:31.710Z,101277.94
2024-01-21T23:32:34.807Z,101278.56
2024-01-21T23:37:38.043Z,101286.00
2024-01-21T23:42:41.053Z,101282.63
2024-01-21T23:47:44.188Z,101280.38
2024-01-21T23:52:47.143Z,101282.19
2024-01-21T23:57:50.298Z,101284.56
